Flight Track Log - Related Links

Times and Time Zones

All times are in EDT time to prevent confusion due to time zone crossing. See the SWA920 flight status page for this flight to view local times or setup timezone preferences in your user account.

Time Position Orientation Groundspeed Altitude Reporting Facility
EDT Latitude Longitude Course Direction KTS MPH feet Rate Location/Type
Sun 05:52:30 PM 36.0833 -86.6667 141° Southeast 184 212 2,300  Level Nashville TRACON
Sun 05:53:30 PM 36.0667 -86.6000 107° East 253 291 4,400 2,829 Climbing Nashville TRACON
Sun 05:54:33 PM 36.0731 -86.4819 86° East 290 334 8,100 3,194 Climbing Memphis Center
Sun 05:55:34 PM 36.0717 -86.3717 91° East 338 389 11,000 3,000 Climbing Memphis Center
Sun 05:56:33 PM 36.0717 -86.2508 90° East 408 470 14,100 2,471 Climbing Memphis Center
Sun 05:57:33 PM 36.0694 -86.1200 91° East 401 461 15,900 2,393 Climbing Memphis Center
Sun 05:59:31 PM 36.0572 -85.8622 93° East 396 456 21,200 2,629 Climbing Atlanta Center
Sun 06:00:31 PM 36.0428 -85.7003 96° East 415 478 23,700 2,100 Climbing Atlanta Center
Sun 06:01:31 PM 36.0325 -85.5383 94° East 442 509 25,400 1,650 Climbing Atlanta Center
Sun 06:02:31 PM 36.0197 -85.3789 96° East 463 533 27,000 1,400 Climbing Atlanta Center
Sun 06:03:31 PM 36.0089 -85.2169 95° East 463 533 28,200 1,500 Climbing Atlanta Center
Sun 06:04:31 PM 35.9622 -85.0753 112° Southeast 446 513 30,000 1,550 Climbing Atlanta Center
Sun 06:05:31 PM 35.8817 -84.9717 134° Southeast 431 496 31,300 1,500 Climbing Atlanta Center
Sun 06:06:31 PM 35.7947 -84.8556 133° Southeast 454 522 33,000 1,700 Climbing Atlanta Center
Sun 06:07:31 PM 35.7100 -84.7419 133° Southeast 454 522 34,700 1,500 Climbing Atlanta Center
Sun 06:08:31 PM 35.6231 -84.6264 133° Southeast 454 522 36,000 1,361 Climbing Atlanta Center
Sun 06:09:30 PM 35.5400 -84.5136 132° Southeast 449 517 37,400 1,311 Climbing Atlanta Center
Sun 06:10:30 PM 35.4508 -84.3983 133° Southeast 449 517 38,600 800 Climbing Atlanta Center
Sun 06:11:30 PM 35.3633 -84.2808 132° Southeast 449 517 39,000 200 Climbing Atlanta Center
Sun 06:12:30 PM 35.2989 -84.1406 119° Southeast 465 535 39,000  Level Atlanta Center
Sun 06:13:31 PM 35.2447 -83.9853 113° Southeast 472 543 39,000  Level Atlanta Center
Sun 06:14:31 PM 35.1922 -83.8331 113° Southeast 479 551 39,000  Level Atlanta Center
Sun 06:15:31 PM 35.1378 -83.6833 114° Southeast 484 557 39,000  Level Atlanta Center
Sun 06:16:31 PM 35.0850 -83.5311 113° Southeast 484 557 39,000  Level Atlanta Center
Sun 06:17:31 PM 35.0322 -83.3792 113° Southeast 484 557 39,000  Level Atlanta Center
Sun 06:18:31 PM 34.9769 -83.2300 114° Southeast 479 551 39,000  Level Atlanta Center
Sun 06:19:31 PM 34.9153 -83.0636 114° Southeast 479 551 39,000  Level Atlanta Center
Sun 06:20:30 PM 34.8597 -82.9097 114° Southeast 492 566 39,000  Level Atlanta Center
Sun 06:21:31 PM 34.8125 -82.7839 115° Southeast 482 555 39,000 -250 Level Atlanta Center
Sun 06:22:30 PM 34.7589 -82.6331 113° Southeast 476 548 38,500 -750 Descending Atlanta Center
Sun 06:23:31 PM 34.7028 -82.4825 114° Southeast 481 554 37,500 -942 Descending Atlanta Center
Sun 06:24:31 PM 34.6486 -82.3319 114° Southeast 481 554 36,600 -950 Descending Atlanta Center
Sun 06:25:31 PM 34.5919 -82.1817 115° Southeast 481 554 35,600 -1,000 Descending Atlanta Center
Sun 06:26:31 PM 34.5356 -82.0317 114° Southeast 481 554 34,600 -1,000 Descending Atlanta Center
Sun 06:27:31 PM 34.4786 -81.8792 114° Southeast 486 559 33,600 -1,673 Descending Atlanta Center
Sun 06:29:16 PM 34.3808 -81.6144 114° Southeast 486 559 30,000 -2,073 Descending Jacksonville Center
Sun 06:30:16 PM 34.3292 -81.4744 114° Southeast 472 543 27,900 -1,800 Descending Jacksonville Center
Sun 06:31:16 PM 34.2572 -81.3825 133° Southeast 455 524 26,400 -1,250 Descending Jacksonville Center
Sun 06:32:16 PM 34.1606 -81.3167 151° Southeast 409 471 25,400 -1,000 Descending Jacksonville Center
Sun 06:33:16 PM 34.0678 -81.2481 149° Southeast 403 464 24,400 -1,000 Descending Jacksonville Center
Sun 06:34:16 PM 33.9750 -81.1822 150° Southeast 396 456 23,400 -950 Descending Jacksonville Center
Sun 06:35:16 PM 33.8803 -81.1164 150° Southeast 384 442 22,500 -950 Descending Jacksonville Center
Sun 06:36:16 PM 33.7856 -81.0533 151° Southeast 384 442 21,500 -1,050 Descending Jacksonville Center
Sun 06:37:16 PM 33.6842 -80.9806 149° Southeast 384 442 20,400 -1,150 Descending Jacksonville Center
Sun 06:38:16 PM 33.5894 -80.9178 151° Southeast 384 442 19,200 -1,550 Descending Jacksonville Center
Sun 06:39:16 PM 33.5028 -80.8600 151° Southeast 379 436 17,300 -1,950 Descending Jacksonville Center
Sun 06:40:16 PM 33.4183 -80.7997 149° Southeast 373 429 15,300 -2,000 Descending Jacksonville Center
Sun 06:41:16 PM 33.3319 -80.7422 151° Southeast 357 411 13,300 -2,000 Descending Jacksonville Center
Sun 06:42:16 PM 33.2494 -80.6869 151° Southeast 347 399 11,300 -1,550 Descending Jacksonville Center
Sun 06:43:16 PM 33.2019 -80.5914 121° Southeast 323 372 10,200 -1,050 Descending Jacksonville Center
Sun 06:44:16 PM 33.1750 -80.4953 108° East 308 354 9,200 -1,200 Descending Jacksonville Center
Sun 06:45:16 PM 33.1483 -80.4042 109° East 296 341 7,800 -1,350 Descending Jacksonville Center
Sun 06:46:16 PM 33.1214 -80.3206 111° Southeast 277 319 6,500 -1,350 Descending Jacksonville Center
Sun 06:47:16 PM 33.0989 -80.2394 108° East 271 312 5,100 -1,400 Descending Jacksonville Center
Sun 06:48:16 PM 33.0742 -80.1558 109° East 266 306 3,700 -850 Descending Jacksonville Center
Sun 06:49:16 PM 33.0561 -80.0969 110° East 246 283 3,400 -700 Descending Jacksonville Center
Sun 06:50:16 PM 33.0381 -80.0356 109° East 217 250 2,300 -1,100 Descending Jacksonville Center
Sun 06:52:00 PM 32.8986 -80.0405 221° Southwest  Level Estimated
Sun 06:59:00 PM 32.8986 -80.0405 79° East  Level Estimated
Sun 07:00:00 PM 32.8986 -80.0405 79° East  Level Estimated
Sun 07:01:00 PM 32.8986 -80.0405 79° East  Level Estimated
Sun 07:02:00 PM 32.8986 -80.0405 79° East  Level Estimated
Sun 07:03:00 PM 32.8986 -80.0405 79° East  Level Estimated

Login

Don't have an account? Register now (free) for customized features, flight alerts, and more!